»·PEaware :: SWA1701 KABQ-KAMA

SWA1701 :: KABQ-KAMA

FLIGHT INFORMATION

Flight Status: Arrived
Operator:
Southwest Airlines
More flights by this operator :: More flights under this callsign
Pilot: Chuck O. (4337)
Aircraft: BOEING 737-700
(B737)
More flights by this aircraft type
Origin: KABQ Albuquerque Intl Sunport
United States
Destination: KAMA Amarillo Intl
United States
More flights between these airports :: More routes between these airports
Route: +GRZZZ3 TCC J6 PNH
File this flight plan on PilotEdge
Remarks:
Altitude:
(Current/Filed)
370ft
Speed:
(Current/Filed)
471kts
Departed: 08-Sep-17 07:45 AM
Arrived: 08-Sep-17 08:29 AM
Distance/Time
Traveled:
241nm/0:43
Distance/Time
To Go:
Arrived

Flight Plot

Page will automatically refresh every two minutes.

Flight plan parsing failed; only flown route is shown


Map Options




Map Legend


Flown Route
Filed Route
Departure Airport
Arrival Airport
Navaid (VOR, NDB)
Fix

Horizontal Profiles

Position Reports

Time Latitude Longitude Heading Altitude Ground
Speed
08-Sep-17 07:27 35.046786 -106.615509 359 5319ft 0kts
08-Sep-17 07:28 35.046786 -106.615509 359 5319ft 0kts
08-Sep-17 07:29 35.046786 -106.615509 359 5319ft 0kts
08-Sep-17 07:30 35.046786 -106.615509 359 5319ft 0kts
08-Sep-17 07:31 35.046786 -106.615509 359 5319ft 0kts
08-Sep-17 07:32 35.046786 -106.615509 359 5319ft 0kts
08-Sep-17 07:33 35.046786 -106.615509 359 5319ft 0kts
08-Sep-17 07:34 35.046786 -106.615509 359 5319ft 0kts
08-Sep-17 07:35 35.046786 -106.615509 359 5319ft 0kts
08-Sep-17 07:36 35.046786 -106.615509 359 5319ft 0kts
08-Sep-17 07:37 35.046786 -106.615509 359 5319ft 0kts
08-Sep-17 07:38 35.046676 -106.615509 358 5319ft 2kts
08-Sep-17 07:39 35.046118 -106.615286 279 5319ft 2kts
08-Sep-17 07:40 35.046106 -106.615131 273 5319ft 0kts
08-Sep-17 07:41 35.046106 -106.615131 273 5319ft 0kts
08-Sep-17 07:42 35.046106 -106.615131 273 5319ft 0kts
08-Sep-17 07:43 35.046106 -106.615131 273 5319ft 0kts
08-Sep-17 07:44 35.046105 -106.616378 270 5319ft 10kts
08-Sep-17 07:45 35.045962 -106.619177 226 5319ft 11kts
08-Sep-17 07:46 35.045249 -106.619591 187 5319ft 0kts
08-Sep-17 07:47 35.045249 -106.619591 187 5319ft 0kts
08-Sep-17 07:48 35.044378 -106.619048 85 5319ft 0kts
08-Sep-17 07:49 35.044278 -106.585251 91 5543ft 183kts
08-Sep-17 07:50 35.062570 -106.529472 16 7827ft 216kts
08-Sep-17 07:51 35.120569 -106.574950 315 9803ft 293kts
08-Sep-17 07:52 35.204647 -106.595471 0 12196ft 348kts
08-Sep-17 07:53 35.298331 -106.563077 42 15257ft 368kts
08-Sep-17 07:54 35.355184 -106.457309 79 18234ft 385kts
08-Sep-17 07:55 35.364868 -106.323704 86 20956ft 403kts
08-Sep-17 07:56 35.372356 -106.183518 86 23336ft 420kts
08-Sep-17 07:57 35.380156 -106.038432 86 25421ft 434kts
08-Sep-17 07:58 35.388404 -105.888749 86 27295ft 447kts
08-Sep-17 07:59 35.396596 -105.734285 86 28950ft 459kts
08-Sep-17 08:00 35.404729 -105.576487 86 30390ft 470kts
08-Sep-17 08:01 35.412539 -105.414930 86 31846ft 476kts
08-Sep-17 08:02 35.401997 -105.253173 98 33401ft 477kts
08-Sep-17 08:03 35.381203 -105.092599 98 34806ft 478kts
08-Sep-17 08:04 35.360372 -104.931671 98 36061ft 479kts
08-Sep-17 08:05 35.339850 -104.769916 98 37153ft 480kts
08-Sep-17 08:06 35.318775 -104.607608 98 37339ft 482kts
08-Sep-17 08:07 35.297543 -104.446323 98 37319ft 481kts
08-Sep-17 08:08 35.276004 -104.284534 98 37291ft 480kts
08-Sep-17 08:09 35.254325 -104.123408 98 37263ft 480kts
08-Sep-17 08:10 35.232472 -103.961749 98 37237ft 482kts
08-Sep-17 08:11 35.210354 -103.800038 99 37219ft 482kts
08-Sep-17 08:12 35.187857 -103.638813 98 35569ft 482kts
08-Sep-17 08:13 35.185801 -103.475394 86 32808ft 475kts
08-Sep-17 08:14 35.191393 -103.317078 86 30609ft 458kts
08-Sep-17 08:15 35.196317 -103.164578 86 28448ft 441kts
08-Sep-17 08:16 35.201307 -103.018181 86 26309ft 416kts
08-Sep-17 08:17 35.205575 -102.881179 87 24299ft 391kts
08-Sep-17 08:18 35.209439 -102.750238 87 22350ft 380kts
08-Sep-17 08:19 35.213076 -102.621496 87 20174ft 378kts
08-Sep-17 08:20 35.216525 -102.494460 87 18204ft 369kts
08-Sep-17 08:21 35.219764 -102.370362 87 16244ft 359kts
08-Sep-17 08:22 35.224650 -102.250939 86 14080ft 345kts
08-Sep-17 08:23 35.231660 -102.136025 86 11022ft 340kts
08-Sep-17 08:24 35.237796 -102.029227 86 9567ft 293kts
08-Sep-17 08:25 35.243343 -101.930272 87 7428ft 286kts
08-Sep-17 08:26 35.249615 -101.837176 77 6139ft 255kts
08-Sep-17 08:27 35.291348 -101.776107 45 5984ft 220kts
08-Sep-17 08:28 35.330681 -101.725975 54 5802ft 196kts
08-Sep-17 08:29 35.335332 -101.668425 124 5242ft 157kts
08-Sep-17 08:30 35.299771 -101.655078 182 4867ft 134kts
08-Sep-17 08:31 35.264078 -101.662459 210 4506ft 132kts
08-Sep-17 08:32 35.237323 -101.692553 214 3891ft 133kts
08-Sep-17 08:33 35.219612 -101.714042 227 3615ft 36kts
08-Sep-17 08:34 35.217433 -101.715451 143 3615ft 0kts
08-Sep-17 08:35 35.216945 -101.714933 123 3615ft 6kts
08-Sep-17 08:36 35.218919 -101.710247 133 3615ft 13kts
08-Sep-17 08:37 35.217907 -101.710439 144 3615ft 8kts
08-Sep-17 08:38 35.217460 -101.709950 135 3615ft 0kts
08-Sep-17 08:39 35.217460 -101.709950 135 3615ft 0kts
08-Sep-17 08:40 35.217460 -101.709950 135 3615ft 0kts
08-Sep-17 08:41 35.217460 -101.709950 135 3615ft 0kts

Navigation Log

Ident Type
Flight plan parsing failed, navigation log unavailable